Time;durP1;ratioP1;P1;durP2;ratioP2;P2;SDS_P1;SDS_P2;PMS_P1;PMS_P2;Temp;Humidity;BMP_temperature;BMP_pressure;BME280_temperature;BME280_humidity;BME280_pressure;Samples;Min_cycle;Max_cycle;Signal;HPM_P1;HPM_P2
2022/11/01 00:02:04;;;;;;;464.52;114.10;;;10.70;99.90;;;;;;6337386;22;20303;-84
2022/11/01 00:04:30;;;;;;;342.25;111.60;;;10.70;99.90;;;;;;6337257;22;20065;-85
2022/11/01 00:06:56;;;;;;;468.33;111.78;;;10.70;99.90;;;;;;6339335;22;19987;-86
2022/11/01 00:09:21;;;;;;;503.38;116.38;;;10.60;99.90;;;;;;6337281;22;20049;-85
2022/11/01 00:11:47;;;;;;;609.83;126.65;;;10.60;99.90;;;;;;6338063;22;20074;-86
2022/11/01 00:14:18;;;;;;;422.75;115.82;;;10.60;99.90;;;;;;6338270;22;19998;-84
2022/11/01 00:16:44;;;;;;;466.58;118.20;;;10.70;99.90;;;;;;6311743;22;20537;-85
2022/11/01 00:19:10;;;;;;;594.30;114.00;;;10.70;99.90;;;;;;6311942;22;20018;-83
2022/11/01 00:21:36;;;;;;;591.80;111.25;;;10.70;99.90;;;;;;6339766;22;19994;-85
2022/11/01 00:24:02;;;;;;;574.92;109.53;;;10.60;99.90;;;;;;6339555;22;19991;-84
2022/11/01 00:26:28;;;;;;;586.08;110.78;;;10.60;99.90;;;;;;6339404;22;20044;-84
2022/11/01 00:28:54;;;;;;;667.22;112.00;;;10.60;99.90;;;;;;6339228;22;19991;-82
2022/11/01 00:31:20;;;;;;;578.20;113.38;;;10.50;99.90;;;;;;6311792;22;20003;-85
2022/11/01 00:33:47;;;;;;;500.50;106.07;;;10.50;99.90;;;;;;6311564;22;20097;-83
2022/11/01 00:36:13;;;;;;;514.70;105.88;;;10.50;99.90;;;;;;6311731;22;20123;-85
2022/11/01 00:38:39;;;;;;;458.75;104.95;;;10.40;99.90;;;;;;6311689;22;19995;-86
2022/11/01 00:41:05;;;;;;;446.25;109.40;;;10.40;99.90;;;;;;6339497;22;20001;-85
2022/11/01 00:43:35;;;;;;;508.48;105.22;;;10.40;99.90;;;;;;6339570;22;20070;-86
2022/11/01 00:46:01;;;;;;;817.65;118.97;;;10.40;99.90;;;;;;6311025;22;20002;-87
2022/11/01 00:48:26;;;;;;;503.25;108.15;;;10.30;99.90;;;;;;6339643;22;20073;-84
2022/11/01 00:50:53;;;;;;;704.40;120.03;;;10.30;99.90;;;;;;6337851;22;19995;-87
2022/11/01 00:53:19;;;;;;;448.08;102.53;;;10.30;99.90;;;;;;6311618;22;19998;-84
2022/11/01 00:55:45;;;;;;;478.42;106.88;;;10.30;99.90;;;;;;6311968;22;19999;-84
2022/11/01 00:58:11;;;;;;;487.75;106.43;;;10.20;99.90;;;;;;6339667;22;20026;-83
2022/11/01 01:00:37;;;;;;;495.27;105.88;;;10.20;99.90;;;;;;6339229;22;20018;-84
2022/11/01 01:03:04;;;;;;;557.05;107.78;;;10.20;99.90;;;;;;6311984;22;20050;-84
2022/11/01 01:05:30;;;;;;;548.40;105.32;;;10.20;99.90;;;;;;6311445;22;19991;-85
2022/11/01 01:07:56;;;;;;;351.33;103.30;;;10.20;99.90;;;;;;6338713;22;19999;-82
2022/11/01 01:10:22;;;;;;;411.10;105.53;;;10.20;99.90;;;;;;6338853;22;19999;-85
2022/11/01 01:12:48;;;;;;;413.73;107.80;;;10.20;99.90;;;;;;6337204;22;20654;-84
2022/11/01 01:15:13;;;;;;;470.27;107.82;;;10.20;99.90;;;;;;6339282;22;20086;-85
2022/11/01 01:17:39;;;;;;;587.00;110.32;;;10.20;99.90;;;;;;6313796;22;20044;-84
2022/11/01 01:20:06;;;;;;;396.95;104.50;;;10.20;99.90;;;;;;6341603;22;20069;-87
2022/11/01 01:22:32;;;;;;;681.05;113.68;;;10.20;99.90;;;;;;6313630;22;19995;-86
2022/11/01 01:24:58;;;;;;;648.83;113.75;;;10.20;99.90;;;;;;6341368;22;19991;-86
2022/11/01 01:27:24;;;;;;;517.75;107.45;;;10.10;99.90;;;;;;6340484;22;19995;-85
2022/11/01 01:29:51;;;;;;;350.98;99.93;;;10.10;99.90;;;;;;6340701;22;20024;-83
2022/11/01 01:32:20;;;;;;;565.92;106.47;;;10.20;99.90;;;;;;6313028;22;20009;-87
2022/11/01 01:34:46;;;;;;;445.00;102.85;;;10.20;99.90;;;;;;6340860;22;20074;-84
2022/11/01 01:37:14;;;;;;;488.70;105.28;;;10.10;99.90;;;;;;6339203;22;20041;-85
2022/11/01 01:39:40;;;;;;;558.63;106.47;;;10.10;99.90;;;;;;6313280;22;20463;-87
2022/11/01 01:42:33;;;;;;;355.23;101.65;;;10.10;99.90;;;;;;6313201;22;20052;-83
2022/11/01 01:44:58;;;;;;;426.05;107.88;;;10.10;99.90;;;;;;6326316;22;20001;-84
2022/11/01 01:47:29;;;;;;;502.42;113.28;;;10.20;99.90;;;;;;6313229;22;20002;-86
2022/11/01 01:50:05;;;;;;;510.35;115.15;;;10.20;99.90;;;;;;6313226;22;19999;-85
2022/11/01 01:52:37;;;;;;;342.35;108.07;;;10.20;99.90;;;;;;6340974;22;20065;-88
2022/11/01 01:55:07;;;;;;;332.08;105.18;;;10.20;99.90;;;;;;6340876;22;20392;-83
2022/11/01 01:57:35;;;;;;;349.02;104.28;;;10.20;99.90;;;;;;6340630;22;20002;-83
2022/11/01 02:00:01;;;;;;;429.40;106.43;;;10.20;99.90;;;;;;6313055;22;19991;-85
2022/11/01 02:02:27;;;;;;;324.98;101.82;;;10.20;99.90;;;;;;6340361;22;20048;-84
2022/11/01 02:05:03;;;;;;;351.40;104.55;;;10.10;99.90;;;;;;6339046;22;19995;-85
2022/11/01 02:07:29;;;;;;;588.33;109.65;;;10.10;99.90;;;;;;6340579;22;19991;-87
2022/11/01 02:09:55;;;;;;;343.38;106.43;;;10.00;99.90;;;;;;6338929;22;20002;-84
2022/11/01 02:12:25;;;;;;;517.85;110.78;;;10.00;99.90;;;;;;6340343;22;19991;-88
2022/11/01 02:14:51;;;;;;;363.25;109.10;;;10.00;99.90;;;;;;6340083;22;19987;-86
2022/11/01 02:17:39;;;;;;;372.73;105.15;;;10.00;99.90;;;;;;6338865;22;19999;-83
2022/11/01 02:20:42;;;;;;;331.83;106.05;;;9.90;99.90;;;;;;6312493;22;20018;-86
2022/11/01 02:23:42;;;;;;;499.25;111.97;;;10.00;99.90;;;;;;6340128;22;20403;-86
2022/11/01 02:26:10;;;;;;;407.88;108.40;;;9.90;99.90;;;;;;6340419;22;20006;-84
2022/11/01 02:29:07;;;;;;;437.77;109.50;;;10.00;99.90;;;;;;6312700;22;20006;-87
2022/11/01 02:32:07;;;;;;;410.05;111.22;;;9.90;99.90;;;;;;6340446;22;19995;-85
2022/11/01 02:35:11;;;;;;;358.95;111.22;;;10.00;99.90;;;;;;6312591;22;20047;-85
2022/11/01 02:38:00;;;;;;;340.58;107.60;;;10.00;99.90;;;;;;6188742;23;20008;-85
2022/11/01 02:40:46;;;;;;;417.70;109.00;;;10.10;99.90;;;;;;6214451;23;20031;-84
2022/11/01 02:43:23;;;;;;;448.48;109.22;;;10.10;99.90;;;;;;6214208;23;20007;-86
2022/11/01 02:45:50;;;;;;;537.03;111.53;;;10.00;99.90;;;;;;6214617;23;20421;-86
2022/11/01 02:48:21;;;;;;;336.45;107.93;;;10.00;99.90;;;;;;6214368;23;20043;-87
2022/11/01 02:50:56;;;;;;;320.48;104.95;;;10.00;99.90;;;;;;6214097;23;20043;-87
2022/11/01 02:53:22;;;;;;;470.08;113.97;;;10.10;99.90;;;;;;6214215;23;19996;-85
2022/11/01 02:55:51;;;;;;;317.90;105.53;;;10.10;99.90;;;;;;6214099;23;19996;-84
2022/11/01 02:58:23;;;;;;;426.02;108.88;;;10.10;99.90;;;;;;6214179;23;20007;-86
2022/11/01 03:00:50;;;;;;;483.73;110.07;;;10.00;99.90;;;;;;6213767;23;19992;-85
2022/11/01 03:03:24;;;;;;;419.88;106.53;;;10.00;99.90;;;;;;6214147;23;20030;-84
2022/11/01 03:05:59;;;;;;;392.30;106.38;;;10.00;99.90;;;;;;6213789;23;19992;-82
2022/11/01 03:08:47;;;;;;;472.85;108.93;;;9.90;99.90;;;;;;6214031;23;20000;-85
2022/11/01 03:11:42;;;;;;;497.98;112.68;;;10.00;99.90;;;;;;6213975;23;19996;-84
2022/11/01 03:14:21;;;;;;;322.05;102.05;;;10.00;99.90;;;;;;6262538;22;19999;-85
2022/11/01 03:16:52;;;;;;;358.77;105.47;;;10.00;99.90;;;;;;6312486;22;20010;-85
2022/11/01 03:19:41;;;;;;;620.75;115.15;;;10.00;99.90;;;;;;6340214;22;20408;-86
2022/11/01 03:22:29;;;;;;;486.38;107.00;;;10.00;99.90;;;;;;6312454;22;19994;-86
2022/11/01 03:27:59;;;;;;;;;;;9.80;99.90;;;;;;6340127;22;20013;-86
2022/11/01 03:30:26;;;;;;;502.02;107.07;;;9.80;99.90;;;;;;6312454;22;19906;-84
2022/11/01 03:32:55;;;;;;;545.78;109.65;;;9.80;99.90;;;;;;6312299;22;20001;-87
2022/11/01 03:35:36;;;;;;;402.33;102.90;;;9.70;99.90;;;;;;6312141;22;19994;-87
2022/11/01 03:38:07;;;;;;;670.75;113.47;;;9.70;99.90;;;;;;6311534;22;20020;-85
2022/11/01 03:40:34;;;;;;;589.63;109.38;;;9.70;99.90;;;;;;6339689;22;19995;-87
2022/11/01 03:43:04;;;;;;;330.63;103.57;;;9.70;99.90;;;;;;6312208;22;20041;-87
2022/11/01 03:45:32;;;;;;;367.70;102.30;;;9.70;99.90;;;;;;6339306;22;20418;-86
2022/11/01 03:47:59;;;;;;;420.48;103.05;;;9.80;99.90;;;;;;6311857;22;20005;-84
2022/11/01 03:50:27;;;;;;;332.75;102.32;;;9.70;99.90;;;;;;6312196;22;19999;-86
2022/11/01 03:52:53;;;;;;;336.33;96.03;;;9.80;99.90;;;;;;6312395;22;20434;-88
2022/11/01 03:55:20;;;;;;;359.60;97.93;;;9.80;99.90;;;;;;6312088;22;19991;-88
2022/11/01 03:57:51;;;;;;;531.35;101.85;;;9.80;99.90;;;;;;6312370;22;19998;-85
2022/11/01 04:00:41;;;;;;;411.17;90.77;;;9.80;99.90;;;;;;6340196;22;19994;-86
2022/11/01 04:03:08;;;;;;;431.33;88.80;;;9.70;99.90;;;;;;6339849;22;20073;-84
2022/11/01 04:05:36;;;;;;;456.85;87.75;;;9.80;99.90;;;;;;6312360;22;19995;-87
2022/11/01 04:08:02;;;;;;;500.20;91.65;;;9.80;99.90;;;;;;6312104;22;19994;-85
2022/11/01 04:10:28;;;;;;;373.45;83.75;;;9.70;99.90;;;;;;6311695;22;20419;-84
2022/11/01 04:12:55;;;;;;;516.08;90.93;;;9.70;99.90;;;;;;6338040;22;20430;-84
2022/11/01 04:21:05;;;;;;;666.05;92.38;;;9.60;99.90;;;;;;6339271;22;20029;-88
2022/11/01 04:23:32;;;;;;;356.65;78.28;;;9.60;99.90;;;;;;6311666;22;19990;-86
2022/11/01 04:25:57;;;;;;;554.85;81.38;;;9.60;99.90;;;;;;6339486;22;19998;-87
2022/11/01 04:28:23;;;;;;;391.42;78.82;;;9.60;99.90;;;;;;6337967;22;19999;-85
2022/11/01 04:30:49;;;;;;;345.00;75.90;;;9.50;99.90;;;;;;6338811;22;20051;-87
2022/11/01 04:33:15;;;;;;;600.10;87.80;;;9.50;99.90;;;;;;6311754;22;20077;-89
2022/11/01 04:35:41;;;;;;;493.17;80.28;;;9.50;99.90;;;;;;6339442;22;20342;-89
2022/11/01 04:38:09;;;;;;;368.30;74.38;;;9.40;99.90;;;;;;6337463;22;20003;-86
2022/11/01 04:40:34;;;;;;;458.67;78.28;;;9.40;99.90;;;;;;6339248;22;20010;-83
2022/11/01 04:43:00;;;;;;;303.20;72.90;;;9.40;99.90;;;;;;6337810;22;20048;-85
2022/11/01 04:45:26;;;;;;;746.17;87.78;;;9.40;99.90;;;;;;6337496;22;19998;-87
2022/11/01 04:48:12;;;;;;;318.30;70.53;;;9.40;99.90;;;;;;6337563;22;20077;-86
2022/11/01 04:50:39;;;;;;;286.48;73.05;;;9.40;99.90;;;;;;6339083;22;19999;-86
2022/11/01 04:53:05;;;;;;;265.65;72.90;;;9.40;99.90;;;;;;6311529;22;20013;-85
2022/11/01 04:55:31;;;;;;;396.30;75.43;;;9.40;99.90;;;;;;6337352;22;19995;-85
2022/11/01 04:57:57;;;;;;;537.95;79.97;;;9.50;99.90;;;;;;6338940;22;20042;-86
2022/11/01 05:00:24;;;;;;;612.05;85.60;;;9.40;99.90;;;;;;6339454;22;20292;-84
2022/11/01 05:02:50;;;;;;;447.30;77.20;;;9.40;99.90;;;;;;6311503;22;19999;-86
2022/11/01 05:05:17;;;;;;;400.60;79.90;;;9.40;99.90;;;;;;6337399;22;20023;-87
2022/11/01 05:07:44;;;;;;;383.08;78.70;;;9.40;99.90;;;;;;6311658;22;19998;-87
2022/11/01 05:10:10;;;;;;;322.05;73.07;;;9.40;99.90;;;;;;6311584;22;20009;-87
2022/11/01 05:12:36;;;;;;;294.58;71.47;;;9.40;99.90;;;;;;6311614;22;19995;-84
2022/11/01 05:15:02;;;;;;;319.52;73.03;;;9.50;99.90;;;;;;6311376;22;20063;-83
2022/11/01 05:17:28;;;;;;;364.85;71.25;;;9.40;99.90;;;;;;6311882;22;20085;-86
2022/11/01 05:19:54;;;;;;;477.83;74.53;;;9.40;99.90;;;;;;6337841;22;20396;-84
2022/11/01 05:22:20;;;;;;;441.13;72.93;;;9.40;99.90;;;;;;6338007;22;20281;-84
2022/11/01 05:24:46;;;;;;;379.90;74.50;;;9.40;99.90;;;;;;6337849;22;20052;-87
2022/11/01 05:27:11;;;;;;;302.73;71.78;;;9.40;99.90;;;;;;6337517;22;20443;-85
2022/11/01 05:29:37;;;;;;;259.40;66.80;;;9.40;99.90;;;;;;6337523;22;20029;-85
2022/11/01 05:32:03;;;;;;;339.23;75.18;;;9.40;99.90;;;;;;6339112;22;19998;-86
2022/11/01 05:34:29;;;;;;;297.38;73.22;;;9.50;99.90;;;;;;6336974;22;20002;-84
2022/11/01 05:36:55;;;;;;;294.85;73.63;;;9.50;99.90;;;;;;6337409;22;19991;-85
2022/11/01 05:39:20;;;;;;;479.85;79.25;;;9.50;99.90;;;;;;6339067;22;20013;-86
2022/11/01 05:41:46;;;;;;;302.65;76.28;;;9.50;99.90;;;;;;6338744;22;20072;-84
2022/11/01 05:44:12;;;;;;;286.05;76.15;;;9.50;99.90;;;;;;6337309;22;20020;-85
2022/11/01 05:46:37;;;;;;;375.15;76.03;;;9.50;99.90;;;;;;6338750;22;19998;-84
2022/11/01 05:49:03;;;;;;;269.20;82.10;;;9.50;99.90;;;;;;6337190;22;20003;-84
2022/11/01 05:51:29;;;;;;;213.30;79.90;;;9.60;99.90;;;;;;6338967;22;20403;-87
2022/11/01 05:53:55;;;;;;;236.35;83.75;;;9.60;99.90;;;;;;6337066;22;20071;-84
2022/11/01 05:56:20;;;;;;;280.52;82.45;;;9.70;99.90;;;;;;6338606;22;19995;-85
2022/11/01 05:58:46;;;;;;;381.67;80.65;;;9.60;99.90;;;;;;6339101;22;20060;-85
2022/11/01 06:01:12;;;;;;;383.42;95.20;;;9.60;99.90;;;;;;6338732;22;19991;-84
2022/11/01 06:03:38;;;;;;;282.50;76.95;;;9.60;99.90;;;;;;6339434;22;20002;-83
2022/11/01 06:06:04;;;;;;;427.50;82.13;;;9.60;99.90;;;;;;6339371;22;20005;-83
2022/11/01 06:08:30;;;;;;;359.65;101.22;;;9.60;99.90;;;;;;6313049;22;19995;-83
2022/11/01 06:11:04;;;;;;;363.33;90.68;;;9.60;99.90;;;;;;6340814;22;19999;-84
2022/11/01 06:13:30;;;;;;;266.95;79.00;;;9.50;99.90;;;;;;6312804;22;19995;-83
2022/11/01 06:16:01;;;;;;;289.83;73.97;;;9.60;99.90;;;;;;6312603;22;20011;-84
2022/11/01 06:18:26;;;;;;;367.27;80.07;;;9.60;99.90;;;;;;6341081;22;20022;-84
2022/11/01 06:20:52;;;;;;;275.92;75.90;;;9.60;99.90;;;;;;6339280;22;19995;-83
2022/11/01 06:23:19;;;;;;;257.75;72.45;;;9.60;99.90;;;;;;6313008;22;20076;-81
2022/11/01 06:25:45;;;;;;;426.05;98.97;;;9.60;99.90;;;;;;6313108;22;19999;-84
2022/11/01 06:28:11;;;;;;;378.00;94.40;;;9.50;99.90;;;;;;6338974;22;20002;-84
2022/11/01 06:30:39;;;;;;;339.38;73.78;;;9.60;99.90;;;;;;6340134;22;20005;-83
2022/11/01 06:33:05;;;;;;;473.33;72.82;;;9.60;99.90;;;;;;6338887;22;20479;-83
2022/11/01 06:35:32;;;;;;;331.30;68.35;;;9.50;99.90;;;;;;6338607;22;20037;-85
2022/11/01 06:38:05;;;;;;;358.88;74.40;;;9.40;99.90;;;;;;6340316;22;20002;-85
2022/11/01 06:40:32;;;;;;;439.15;76.85;;;9.40;99.90;;;;;;6312602;22;19998;-84
2022/11/01 06:43:00;;;;;;;255.50;72.50;;;9.40;99.90;;;;;;6312215;22;20024;-85
2022/11/01 06:45:26;;;;;;;300.27;88.68;;;9.50;99.90;;;;;;6312764;22;20002;-83
2022/11/01 06:47:51;;;;;;;326.02;88.90;;;9.50;99.90;;;;;;6340157;22;19995;-85
2022/11/01 06:50:17;;;;;;;323.13;87.05;;;9.50;99.90;;;;;;6339849;22;20006;-83
2022/11/01 06:52:43;;;;;;;275.73;91.07;;;9.60;99.90;;;;;;6338825;22;19999;-84
2022/11/01 06:55:09;;;;;;;353.83;85.53;;;9.60;99.90;;;;;;6339580;22;20109;-86
2022/11/01 06:57:34;;;;;;;325.08;90.78;;;9.60;99.90;;;;;;6338484;22;20090;-85
2022/11/01 07:00:00;;;;;;;312.75;87.28;;;9.70;99.90;;;;;;6338366;22;20364;-86
2022/11/01 07:02:26;;;;;;;243.93;91.40;;;9.70;99.90;;;;;;6338534;22;20396;-84
2022/11/01 07:04:52;;;;;;;283.70;85.90;;;9.80;99.90;;;;;;6339600;22;20066;-83
2022/11/01 07:07:17;;;;;;;279.88;84.03;;;9.90;99.90;;;;;;6338668;22;20013;-84
2022/11/01 07:09:43;;;;;;;358.90;88.32;;;9.90;99.90;;;;;;6338362;22;19999;-84
2022/11/01 07:12:09;;;;;;;235.07;84.97;;;9.90;99.90;;;;;;6338523;22;20423;-82
2022/11/01 07:14:35;;;;;;;300.52;80.45;;;9.90;99.90;;;;;;6340203;22;20407;-83
2022/11/01 07:17:00;;;;;;;285.50;82.70;;;10.00;99.90;;;;;;6340709;22;20003;-89
2022/11/01 07:19:26;;;;;;;276.48;83.10;;;10.00;99.90;;;;;;6339807;22;19991;-83
2022/11/01 07:21:52;;;;;;;256.83;79.60;;;10.10;99.90;;;;;;6338799;22;20026;-86
2022/11/01 07:24:18;;;;;;;205.45;77.43;;;10.10;99.90;;;;;;6340502;22;20070;-83
2022/11/01 07:26:43;;;;;;;202.15;79.65;;;10.20;99.90;;;;;;6338226;22;20013;-84
2022/11/01 07:29:09;;;;;;;201.27;76.93;;;10.20;99.90;;;;;;6337763;22;19995;-87
2022/11/01 07:31:37;;;;;;;228.70;77.55;;;10.30;99.90;;;;;;6339503;22;20047;-84
2022/11/01 07:34:04;;;;;;;224.80;76.82;;;10.40;99.90;;;;;;6338491;22;20067;-85
2022/11/01 07:36:29;;;;;;;295.23;82.00;;;10.30;99.90;;;;;;6339825;22;20399;-86
2022/11/01 07:38:55;;;;;;;201.32;78.85;;;10.40;99.90;;;;;;6340107;22;20048;-84
2022/11/01 07:41:21;;;;;;;259.73;82.82;;;10.40;99.90;;;;;;6340414;22;19990;-85
2022/11/01 07:43:47;;;;;;;238.45;78.97;;;10.40;99.90;;;;;;6338735;22;19998;-83
2022/11/01 07:46:12;;;;;;;278.92;83.22;;;10.40;99.90;;;;;;6340031;22;20066;-86
2022/11/01 07:48:38;;;;;;;227.32;84.28;;;10.30;99.90;;;;;;6340286;22;20026;-86
2022/11/01 07:51:06;;;;;;;256.88;89.15;;;10.30;99.90;;;;;;6338655;22;20014;-85
2022/11/01 07:53:32;;;;;;;247.32;90.78;;;10.30;99.90;;;;;;6340299;22;20396;-85
2022/11/01 07:56:00;;;;;;;219.50;82.68;;;10.30;99.90;;;;;;6338490;22;20423;-85
2022/11/01 07:58:26;;;;;;;203.00;79.18;;;10.30;99.90;;;;;;6339938;22;19994;-83
2022/11/01 08:00:52;;;;;;;187.63;77.55;;;10.50;99.90;;;;;;6312353;22;20076;-84
2022/11/01 08:03:18;;;;;;;292.30;84.35;;;10.50;99.90;;;;;;6338272;22;20002;-87
2022/11/01 08:05:45;;;;;;;206.85;82.47;;;10.50;99.90;;;;;;6338500;22;19991;-84
2022/11/01 08:08:12;;;;;;;189.45;79.90;;;10.50;99.90;;;;;;6311747;22;20018;-85
2022/11/01 08:10:39;;;;;;;201.00;79.78;;;10.60;99.90;;;;;;6312287;22;20009;-83
2022/11/01 08:13:04;;;;;;;206.57;84.38;;;10.70;99.90;;;;;;6312378;22;20009;-83
2022/11/01 08:15:31;;;;;;;226.05;85.88;;;10.80;99.90;;;;;;6311567;22;20094;-83
2022/11/01 08:17:57;;;;;;;236.57;84.50;;;10.80;99.90;;;;;;6311952;22;20455;-86
2022/11/01 08:20:24;;;;;;;180.50;79.93;;;10.90;99.90;;;;;;6311960;22;19991;-86
2022/11/01 08:22:52;;;;;;;173.43;78.82;;;11.00;99.90;;;;;;6312036;22;20309;-84
2022/11/01 08:25:19;;;;;;;185.55;81.75;;;11.10;99.90;;;;;;6311924;22;20002;-83
2022/11/01 08:27:45;;;;;;;192.10;85.30;;;11.10;99.90;;;;;;6311839;22;20049;-86
2022/11/01 08:30:12;;;;;;;167.93;83.63;;;11.20;99.90;;;;;;6340010;22;19994;-85
2022/11/01 08:32:38;;;;;;;187.23;81.97;;;11.20;99.90;;;;;;6339787;22;19998;-85
2022/11/01 08:35:05;;;;;;;160.57;78.90;;;11.20;99.90;;;;;;6339590;22;20070;-83
2022/11/01 08:37:30;;;;;;;166.55;81.53;;;11.20;99.90;;;;;;6312160;22;20082;-84
2022/11/01 08:39:56;;;;;;;173.15;82.43;;;11.30;99.90;;;;;;6337846;22;20056;-84
2022/11/01 08:42:22;;;;;;;170.25;83.03;;;11.50;99.90;;;;;;6339917;22;19991;-83
2022/11/01 08:44:48;;;;;;;164.80;80.35;;;11.50;99.90;;;;;;6339444;22;19998;-87
2022/11/01 08:47:13;;;;;;;170.77;87.68;;;11.60;99.90;;;;;;6338003;22;20031;-86
2022/11/01 08:49:39;;;;;;;158.73;84.78;;;11.70;99.90;;;;;;6337958;22;20407;-84
2022/11/01 08:52:05;;;;;;;155.48;79.78;;;11.80;99.90;;;;;;6338201;22;19998;-83
2022/11/01 08:54:32;;;;;;;149.02;76.72;;;11.80;99.90;;;;;;6338253;22;19991;-86
2022/11/01 08:56:57;;;;;;;156.25;77.05;;;11.70;99.90;;;;;;6311702;22;19998;-85
2022/11/01 08:59:23;;;;;;;156.88;80.13;;;11.80;99.90;;;;;;6338078;22;19990;-87
2022/11/01 09:01:49;;;;;;;150.43;79.25;;;11.80;99.90;;;;;;6338185;22;20002;-85
2022/11/01 09:04:16;;;;;;;175.57;87.78;;;11.90;99.90;;;;;;6339186;22;19991;-85
2022/11/01 09:06:42;;;;;;;175.75;88.40;;;12.10;99.90;;;;;;6312142;22;20006;-86
2022/11/01 09:09:09;;;;;;;182.32;90.50;;;12.00;99.90;;;;;;6311894;22;20515;-86
2022/11/01 09:11:36;;;;;;;163.77;89.70;;;12.10;99.90;;;;;;6339443;22;20425;-84
2022/11/01 09:14:01;;;;;;;180.65;89.65;;;12.20;99.90;;;;;;6311909;22;20005;-84
2022/11/01 09:16:28;;;;;;;175.65;88.07;;;12.30;99.90;;;;;;6339544;22;20303;-88
2022/11/01 09:18:54;;;;;;;201.43;97.35;;;12.40;99.90;;;;;;6339717;22;19995;-85
2022/11/01 09:21:20;;;;;;;191.35;96.25;;;12.50;99.90;;;;;;6339583;22;19987;-86
2022/11/01 09:23:45;;;;;;;202.02;100.32;;;12.70;99.90;;;;;;6337800;22;20001;-84
2022/11/01 09:26:12;;;;;;;184.30;96.13;;;12.70;99.90;;;;;;6340047;22;20014;-85
2022/11/01 09:28:38;;;;;;;184.63;95.93;;;12.90;99.90;;;;;;6337399;22;20007;-86
2022/11/01 09:31:06;;;;;;;193.80;95.78;;;12.90;99.90;;;;;;6338460;22;19990;-83
2022/11/01 09:33:32;;;;;;;198.57;98.60;;;13.10;99.90;;;;;;6338939;22;19994;-87
2022/11/01 09:35:58;;;;;;;187.27;97.10;;;13.40;99.90;;;;;;6339264;22;20512;-87
2022/11/01 09:38:25;;;;;;;178.75;93.95;;;13.60;99.90;;;;;;6339666;22;20086;-85
2022/11/01 09:41:11;;;;;;;168.90;91.45;;;13.80;99.90;;;;;;6313955;22;20083;-83
2022/11/01 09:43:39;;;;;;;168.38;92.15;;;13.90;99.90;;;;;;6313802;22;20028;-85
2022/11/01 09:46:06;;;;;;;166.55;90.53;;;14.10;99.90;;;;;;6313496;22;20033;-86
2022/11/01 09:48:35;;;;;;;173.15;91.00;;;14.30;99.90;;;;;;6313416;22;20006;-84
2022/11/01 09:51:06;;;;;;;171.75;93.35;;;14.50;99.90;;;;;;6341325;22;19987;-87
2022/11/01 09:53:33;;;;;;;161.23;92.95;;;14.70;99.90;;;;;;6341092;22;20010;-83
2022/11/01 09:56:09;;;;;;;168.27;92.35;;;15.00;99.90;;;;;;6313547;22;20368;-85
2022/11/01 09:59:03;;;;;;;167.68;91.85;;;15.30;99.90;;;;;;6313556;22;19991;-86
2022/11/01 10:01:48;;;;;;;144.98;85.28;;;15.50;99.90;;;;;;6313643;22;20003;-86
2022/11/01 10:04:43;;;;;;;151.88;88.15;;;15.80;99.90;;;;;;6313646;22;19995;-85
2022/11/01 10:07:33;;;;;;;158.65;90.50;;;16.00;99.90;;;;;;6313214;22;20006;-89
2022/11/01 10:10:17;;;;;;;185.10;102.35;;;16.20;99.90;;;;;;6313423;22;20343;-85
2022/11/01 10:13:04;;;;;;;154.40;87.47;;;16.40;99.90;;;;;;6313224;22;19995;-87
2022/11/01 10:16:12;;;;;;;153.48;87.88;;;16.60;99.90;;;;;;6312896;22;20013;-85
2022/11/01 10:19:03;;;;;;;147.45;85.90;;;16.90;99.90;;;;;;6334562;22;20007;-84
2022/11/01 10:21:41;;;;;;;155.65;87.38;;;17.00;99.90;;;;;;6340869;22;20463;-85
2022/11/01 10:24:18;;;;;;;146.00;87.05;;;17.00;99.90;;;;;;6313247;22;20003;-83
2022/11/01 10:26:46;;;;;;;141.25;84.68;;;17.40;99.90;;;;;;6340856;22;19990;-84
2022/11/01 10:29:36;;;;;;;144.93;83.65;;;17.60;99.90;;;;;;6313242;22;19999;-83
2022/11/01 10:32:04;;;;;;;144.60;83.47;;;17.80;99.90;;;;;;6313220;22;19991;-86
2022/11/01 10:34:37;;;;;;;150.68;84.45;;;17.90;99.90;;;;;;6338697;22;19999;-83
2022/11/01 10:37:36;;;;;;;147.15;88.75;;;18.00;99.90;;;;;;6312979;22;19999;-83
2022/11/01 10:40:17;;;;;;;146.02;85.47;;;18.00;99.90;;;;;;6340920;22;20121;-85
2022/11/01 10:42:43;;;;;;;153.73;91.15;;;18.00;99.90;;;;;;6340589;22;20353;-83
2022/11/01 10:45:16;;;;;;;155.75;90.55;;;18.10;99.90;;;;;;6339205;22;20022;-85
2022/11/01 10:47:44;;;;;;;138.65;84.65;;;18.30;99.90;;;;;;6312910;22;20030;-85
2022/11/01 10:50:32;;;;;;;144.95;84.10;;;18.50;99.90;;;;;;6313066;22;19991;-84
2022/11/01 10:53:10;;;;;;;144.93;87.20;;;18.50;99.90;;;;;;6313148;22;20407;-83
2022/11/01 10:55:42;;;;;;;148.25;88.45;;;18.60;99.90;;;;;;6313017;22;19998;-82
2022/11/01 10:58:17;;;;;;;;;;;18.50;99.90;;;;;;6313278;22;19999;-85
2022/11/01 11:00:47;;;;;;;146.85;81.43;;;18.70;99.90;;;;;;6340533;22;19903;-84
2022/11/01 11:03:23;;;;;;;138.10;79.97;;;18.80;99.90;;;;;;6312545;22;19998;-87
2022/11/01 11:05:51;;;;;;;132.85;81.13;;;19.00;99.90;;;;;;6313147;22;20002;-85
2022/11/01 11:08:20;;;;;;;130.38;78.68;;;19.00;99.90;;;;;;6313149;22;20029;-84
2022/11/01 11:10:47;;;;;;;146.27;81.05;;;19.10;99.90;;;;;;6340238;22;19987;-87
2022/11/01 11:13:17;;;;;;;121.20;74.28;;;19.00;99.90;;;;;;6312858;22;19991;-86
2022/11/01 11:15:49;;;;;;;115.55;71.22;;;19.20;99.90;;;;;;6340345;22;20009;-85
2022/11/01 11:18:24;;;;;;;125.72;70.22;;;;;;;;;;6313064;22;19995;-87
2022/11/01 11:21:00;;;;;;;114.57;67.78;;;19.50;99.90;;;;;;6313077;22;19999;-89
2022/11/01 11:23:32;;;;;;;114.63;66.03;;;;;;;;;;6311060;22;20027;-84
2022/11/01 11:26:08;;;;;;;117.57;72.18;;;19.80;99.90;;;;;;6312965;22;20320;-88
2022/11/01 11:28:42;;;;;;;119.43;74.03;;;20.00;99.90;;;;;;6340081;22;19999;-90
2022/11/01 11:31:22;;;;;;;100.38;62.63;;;20.00;99.90;;;;;;6312641;22;20001;-85
2022/11/01 11:33:58;;;;;;;91.55;56.75;;;20.10;99.90;;;;;;6340294;22;20001;-83
2022/11/01 11:36:26;;;;;;;108.55;64.47;;;20.10;99.90;;;;;;6312651;22;19997;-86
2022/11/01 11:38:53;;;;;;;105.82;58.30;;;20.10;99.30;;;;;;6312357;22;20002;-87
2022/11/01 11:41:31;;;;;;;100.47;60.95;;;20.00;99.80;;;;;;6312609;22;19998;-84
2022/11/01 11:43:58;;;;;;;102.70;60.40;;;20.20;99.90;;;;;;6312674;22;20060;-87
2022/11/01 11:46:25;;;;;;;131.52;74.30;;;20.20;99.90;;;;;;6339216;22;20003;-85
2022/11/01 11:49:06;;;;;;;93.57;57.33;;;20.20;99.80;;;;;;6312571;22;20006;-84
2022/11/01 11:51:36;;;;;;;93.78;53.13;;;20.20;99.90;;;;;;6311136;22;19998;-86
2022/11/01 11:54:23;;;;;;;87.80;54.85;;;20.30;99.90;;;;;;6311848;22;20070;-83
2022/11/01 11:56:51;;;;;;;85.50;53.22;;;20.20;97.60;;;;;;6340302;22;20001;-82
2022/11/01 11:59:31;;;;;;;80.85;50.15;;;20.30;99.90;;;;;;6339200;22;20002;-87
2022/11/01 12:02:02;;;;;;;80.28;49.33;;;20.40;98.20;;;;;;6340021;22;20407;-84
2022/11/01 12:04:44;;;;;;;75.93;48.05;;;20.30;99.60;;;;;;6312371;22;19994;-85
2022/11/01 12:07:22;;;;;;;;;;;20.30;97.00;;;;;;6312929;22;19995;-86
2022/11/01 12:09:47;;;;;;;82.18;46.72;;;20.20;97.50;;;;;;6312278;22;20291;-85
2022/11/01 12:12:30;;;;;;;85.82;48.28;;;20.20;98.30;;;;;;6340093;22;19998;-86
2022/11/01 12:14:59;;;;;;;70.22;42.78;;;20.30;97.20;;;;;;6339970;22;19991;-86
2022/11/01 12:17:32;;;;;;;99.55;57.22;;;20.30;97.90;;;;;;6311592;22;19995;-83
2022/11/01 12:20:13;;;;;;;68.80;43.85;;;20.20;97.20;;;;;;6339595;22;20040;-88
2022/11/01 12:22:44;;;;;;;72.90;46.25;;;20.20;97.70;;;;;;6312475;22;20043;-86
2022/11/01 12:25:14;;;;;;;82.95;48.85;;;20.20;99.30;;;;;;6312082;22;19990;-86
2022/11/01 12:27:56;;;;;;;78.60;48.38;;;20.20;98.40;;;;;;6312024;22;20335;-86
2022/11/01 12:30:23;;;;;;;71.00;41.10;;;20.10;98.50;;;;;;6312208;22;19995;-85
2022/11/01 12:32:56;;;;;;;73.85;39.63;;;20.10;96.50;;;;;;6339727;22;19987;-84
2022/11/01 12:35:39;;;;;;;68.30;37.97;;;20.10;96.50;;;;;;6311759;22;19994;-86
2022/11/01 12:38:23;;;;;;;69.68;38.00;;;20.00;96.20;;;;;;6339423;22;20140;-86
2022/11/01 12:40:51;;;;;;;65.60;36.88;;;20.00;96.30;;;;;;6312109;22;19999;-84
2022/11/01 12:43:56;;;;;;;67.70;40.03;;;20.00;96.10;;;;;;6312252;22;20456;-83
2022/11/01 12:46:45;;;;;;;69.45;38.92;;;20.00;96.10;;;;;;6338421;22;20263;-83